createdAt,value
2023-05-24T00:02:14.156Z,100299.16
2023-05-24T00:06:17.136Z,100300.78
2023-05-24T00:10:19.433Z,100299.84
2023-05-24T00:14:21.788Z,100299.97
2023-05-24T00:18:24.523Z,100290.47
2023-05-24T00:22:26.879Z,100289.06
2023-05-24T00:26:29.178Z,100276.47
2023-05-24T00:30:31.568Z,100277.94
2023-05-24T00:34:33.914Z,100277.03
2023-05-24T00:38:36.180Z,100287.38
2023-05-24T00:42:38.676Z,100273.41
2023-05-24T00:46:41.663Z,100275.47
2023-05-24T00:50:44.579Z,100264.75
2023-05-24T00:54:46.770Z,100267.66
2023-05-24T00:58:50.914Z,100273.66
2023-05-24T01:02:54.950Z,100272.31
2023-05-24T01:07:17.112Z,100269.66
2023-05-24T01:11:40.055Z,100273.78
2023-05-24T01:16:18.096Z,100268.66
2023-05-24T01:20:23.583Z,100266.66
2023-05-24T01:24:30.524Z,100272.22
2023-05-24T01:28:35.318Z,100270.06
2023-05-24T01:32:38.934Z,100278.69
2023-05-24T01:36:41.282Z,100278.25
2023-05-24T01:40:45.062Z,100276.97
2023-05-24T01:45:06.225Z,100269.22
2023-05-24T01:49:14.136Z,100263.84
2023-05-24T01:53:19.565Z,100251.72
2023-05-24T01:57:23.286Z,100246.22
2023-05-24T02:01:27.036Z,100260.94
2023-05-24T02:05:29.402Z,100265.41
2023-05-24T02:09:31.465Z,100258.00
2023-05-24T02:13:33.516Z,100237.59
2023-05-24T02:17:35.762Z,100236.28
2023-05-24T02:21:38.481Z,100250.13
2023-05-24T02:25:40.882Z,100259.53
2023-05-24T02:29:43.251Z,100257.75
2023-05-24T02:33:45.361Z,100260.38
2023-05-24T02:37:47.480Z,100252.91
2023-05-24T02:41:49.460Z,100236.59
2023-05-24T02:45:51.738Z,100230.72
2023-05-24T02:49:54.582Z,100230.34
2023-05-24T02:53:56.637Z,100219.41
2023-05-24T02:57:58.647Z,100210.78
2023-05-24T03:02:01.012Z,100204.91
2023-05-24T03:06:03.477Z,100236.38
2023-05-24T03:10:06.432Z,100237.66
2023-05-24T03:14:10.906Z,100248.25
2023-05-24T03:18:15.812Z,100249.44
2023-05-24T03:22:20.077Z,100266.25
2023-05-24T03:26:22.134Z,100262.91
2023-05-24T03:30:24.284Z,100274.22
2023-05-24T03:34:31.463Z,100289.72
2023-05-24T03:38:33.789Z,100291.00
2023-05-24T03:42:36.165Z,100264.69
2023-05-24T03:46:38.283Z,100269.97
2023-05-24T03:50:40.557Z,100283.66
2023-05-24T03:54:42.856Z,100293.88
2023-05-24T03:58:46.171Z,100303.56
2023-05-24T04:02:48.273Z,100308.94
2023-05-24T04:06:50.937Z,100318.28
2023-05-24T04:10:53.004Z,100318.94
2023-05-24T04:14:55.287Z,100321.66
2023-05-24T04:18:57.958Z,100318.56
2023-05-24T04:23:00.271Z,100327.44
2023-05-24T04:27:02.506Z,100330.59
2023-05-24T04:31:07.599Z,100335.25
2023-05-24T04:35:10.266Z,100352.88
2023-05-24T04:39:13.133Z,100354.75
2023-05-24T04:43:15.254Z,100355.78
2023-05-24T04:47:17.544Z,100356.66
2023-05-24T04:51:19.892Z,100359.06
2023-05-24T04:55:21.994Z,100353.50
2023-05-24T04:59:24.854Z,100359.91
2023-05-24T05:03:26.985Z,100371.81
2023-05-24T05:07:29.151Z,100372.53
2023-05-24T05:11:31.568Z,100374.66
2023-05-24T05:15:34.360Z,100378.50
2023-05-24T05:19:36.420Z,100376.19
2023-05-24T05:23:39.828Z,100385.16
2023-05-24T05:27:41.957Z,100379.69
2023-05-24T05:31:44.133Z,100383.63
2023-05-24T05:35:46.165Z,100378.88
2023-05-24T05:39:48.174Z,100378.88
2023-05-24T05:43:50.229Z,100386.72
2023-05-24T05:47:52.425Z,100389.22
2023-05-24T05:51:58.123Z,100397.72
2023-05-24T05:56:00.532Z,100393.19
2023-05-24T06:00:02.665Z,100395.03
2023-05-24T06:04:14.229Z,100411.31
2023-05-24T06:08:16.702Z,100414.00
2023-05-24T06:12:18.860Z,100423.19
2023-05-24T06:16:21.346Z,100421.25
2023-05-24T06:20:23.703Z,100419.53
2023-05-24T06:24:26.040Z,100429.06
2023-05-24T06:28:28.205Z,100428.75
2023-05-24T06:32:30.593Z,100433.78
2023-05-24T06:36:35.856Z,100435.91
2023-05-24T06:40:37.886Z,100436.44
2023-05-24T06:44:39.928Z,100441.88
2023-05-24T06:48:42.542Z,100448.31
2023-05-24T06:52:44.596Z,100450.81
2023-05-24T06:56:46.742Z,100452.72
2023-05-24T07:00:50.217Z,100457.81
2023-05-24T07:04:52.780Z,100451.59
2023-05-24T07:08:54.956Z,100461.56
2023-05-24T07:12:57.003Z,100460.03
2023-05-24T07:16:59.907Z,100457.69
2023-05-24T07:21:02.535Z,100456.38
2023-05-24T07:25:05.492Z,100469.56
2023-05-24T07:29:07.696Z,100480.47
2023-05-24T07:33:09.949Z,100486.91
2023-05-24T07:37:12.007Z,100492.28
2023-05-24T07:41:14.526Z,100496.50
2023-05-24T07:45:16.662Z,100500.88
2023-05-24T07:49:18.821Z,100504.56
2023-05-24T07:53:21.023Z,100499.88
2023-05-24T07:57:23.724Z,100499.97
2023-05-24T08:01:25.789Z,100501.22
2023-05-24T08:05:28.269Z,100506.84
2023-05-24T08:09:33.768Z,100503.50
2023-05-24T08:13:35.951Z,100509.38
2023-05-24T08:17:39.322Z,100513.47
2023-05-24T08:21:42.432Z,100509.91
2023-05-24T08:25:45.241Z,100524.25
2023-05-24T08:29:47.787Z,100516.13
2023-05-24T08:33:51.077Z,100518.19
2023-05-24T08:37:53.312Z,100511.91
2023-05-24T08:42:08.730Z,100518.31
2023-05-24T08:46:12.788Z,100522.41
2023-05-24T08:50:15.323Z,100524.25
2023-05-24T08:54:19.166Z,100532.47
2023-05-24T08:58:21.287Z,100528.72
2023-05-24T09:02:24.334Z,100530.59
2023-05-24T09:06:26.910Z,100530.38
2023-05-24T09:10:45.563Z,100533.00
2023-05-24T09:14:52.151Z,100536.81
2023-05-24T09:18:54.354Z,100535.97
2023-05-24T09:22:58.407Z,100536.97
2023-05-24T09:27:06.696Z,100538.28
2023-05-24T09:31:08.972Z,100543.81
2023-05-24T09:35:11.159Z,100543.56
2023-05-24T09:39:13.525Z,100539.28
2023-05-24T09:43:15.650Z,100546.09
2023-05-24T09:47:17.732Z,100533.00
2023-05-24T09:51:20.048Z,100529.53
2023-05-24T09:55:22.505Z,100529.75
2023-05-24T09:59:24.607Z,100531.44
2023-05-24T10:03:27.414Z,100540.38
2023-05-24T10:07:29.704Z,100533.72
2023-05-24T10:11:33.630Z,100541.06
2023-05-24T10:15:36.181Z,100545.00
2023-05-24T10:19:38.251Z,100546.84
2023-05-24T10:23:44.815Z,100548.41
2023-05-24T10:27:49.454Z,100564.66
2023-05-24T10:31:53.340Z,100552.56
2023-05-24T10:35:56.799Z,100552.06
2023-05-24T10:40:00.855Z,100550.72
2023-05-24T10:44:11.180Z,100556.16
2023-05-24T10:48:13.646Z,100554.22
2023-05-24T10:52:15.964Z,100553.81
2023-05-24T10:56:20.954Z,100547.84
2023-05-24T11:04:36.794Z,100552.88
2023-05-24T11:08:43.794Z,100558.38
2023-05-24T11:12:45.955Z,100562.16
2023-05-24T11:16:51.276Z,100551.59
2023-05-24T11:20:53.867Z,100563.50
2023-05-24T11:24:57.505Z,100568.47
2023-05-24T11:29:04.127Z,100564.75
2023-05-24T11:33:22.609Z,100559.75
2023-05-24T11:37:38.512Z,100560.91
2023-05-24T11:41:47.816Z,100568.53
2023-05-24T11:45:51.909Z,100570.63
2023-05-24T11:49:54.204Z,100569.97
2023-05-24T11:53:57.910Z,100567.22
2023-05-24T11:58:02.027Z,100564.47
2023-05-24T12:02:06.057Z,100574.13
2023-05-24T12:06:08.292Z,100569.81
2023-05-24T12:10:12.272Z,100575.16
2023-05-24T12:14:17.203Z,100577.00
2023-05-24T12:18:20.681Z,100576.94
2023-05-24T12:22:28.459Z,100575.38
2023-05-24T12:26:30.693Z,100569.91
2023-05-24T12:30:32.902Z,100571.13
2023-05-24T12:34:34.936Z,100576.53
2023-05-24T12:38:37.275Z,100576.72
2023-05-24T12:42:39.402Z,100575.09
2023-05-24T12:46:41.570Z,100577.31
2023-05-24T12:50:44.025Z,100578.03
2023-05-24T12:54:46.392Z,100582.16
2023-05-24T12:58:48.595Z,100583.38
2023-05-24T13:02:53.077Z,100589.91
2023-05-24T13:06:55.613Z,100599.72
2023-05-24T13:10:57.844Z,100603.84
2023-05-24T13:14:59.855Z,100601.16
2023-05-24T13:19:01.916Z,100599.22
2023-05-24T13:23:04.620Z,100592.72
2023-05-24T13:27:07.696Z,100583.66
2023-05-24T13:31:09.749Z,100588.59
2023-05-24T13:35:11.998Z,100580.56
2023-05-24T13:39:16.603Z,100591.22
2023-05-24T13:43:19.162Z,100586.31
2023-05-24T13:47:35.201Z,100592.63
2023-05-24T13:51:42.209Z,100599.03
2023-05-24T13:55:44.263Z,100600.56
2023-05-24T13:59:46.415Z,100605.97
2023-05-24T14:03:48.550Z,100602.88
2023-05-24T14:07:50.789Z,100593.81
2023-05-24T14:11:53.404Z,100602.31
2023-05-24T14:15:55.731Z,100607.88
2023-05-24T14:19:57.919Z,100627.38
2023-05-24T14:24:00.240Z,100620.41
2023-05-24T14:28:03.790Z,100622.19
2023-05-24T14:32:06.152Z,100616.97
2023-05-24T14:36:09.141Z,100613.50
2023-05-24T14:40:12.154Z,100619.19
2023-05-24T14:44:14.194Z,100611.13
2023-05-24T14:48:16.961Z,100618.50
2023-05-24T14:52:19.197Z,100613.97
2023-05-24T14:56:22.007Z,100616.31
2023-05-24T15:00:26.256Z,100610.47
2023-05-24T15:04:30.358Z,100614.34
2023-05-24T15:08:33.645Z,100611.66
2023-05-24T15:12:35.719Z,100607.47
2023-05-24T15:16:37.852Z,100607.63
2023-05-24T15:20:40.162Z,100615.16
2023-05-24T15:24:42.218Z,100613.94
2023-05-24T15:28:44.446Z,100622.38
2023-05-24T15:32:46.832Z,100630.84
2023-05-24T15:36:49.148Z,100637.41
2023-05-24T15:40:51.458Z,100641.91
2023-05-24T15:44:53.795Z,100643.94
2023-05-24T15:48:55.879Z,100637.06
2023-05-24T15:52:58.188Z,100650.63
2023-05-24T15:57:03.669Z,100655.47
2023-05-24T16:01:05.941Z,100658.84
2023-05-24T16:05:08.337Z,100676.75
2023-05-24T16:09:10.564Z,100685.25
2023-05-24T16:13:12.679Z,100695.31
2023-05-24T16:17:15.466Z,100691.44
2023-05-24T16:21:17.823Z,100695.31
2023-05-24T16:25:19.922Z,100693.53
2023-05-24T16:29:22.253Z,100695.63
2023-05-24T16:33:25.414Z,100692.84
2023-05-24T16:37:27.477Z,100701.25
2023-05-24T16:41:35.151Z,100699.28
2023-05-24T16:45:37.508Z,100702.53
2023-05-24T16:49:39.605Z,100702.03
2023-05-24T16:53:41.925Z,100701.34
2023-05-24T16:57:44.108Z,100700.72
2023-05-24T17:01:48.686Z,100707.75
2023-05-24T17:05:53.264Z,100716.22
2023-05-24T17:09:55.822Z,100708.31
2023-05-24T17:13:57.907Z,100707.19
2023-05-24T17:17:59.680Z,100711.69
2023-05-24T17:22:04.209Z,100707.84
2023-05-24T17:26:08.103Z,100711.69
2023-05-24T17:30:10.680Z,100712.31
2023-05-24T17:34:15.777Z,100719.91
2023-05-24T17:38:18.619Z,100726.28
2023-05-24T17:42:21.249Z,100721.38
2023-05-24T17:46:23.785Z,100733.75
2023-05-24T17:50:25.923Z,100726.78
2023-05-24T17:54:28.243Z,100730.72
2023-05-24T17:58:32.802Z,100733.97
2023-05-24T18:02:34.953Z,100730.06
2023-05-24T18:06:37.561Z,100741.03
2023-05-24T18:10:40.523Z,100746.22
2023-05-24T18:14:44.269Z,100754.63
2023-05-24T18:18:46.694Z,100756.47
2023-05-24T18:22:49.984Z,100757.84
2023-05-24T18:26:52.825Z,100766.00
2023-05-24T18:30:54.921Z,100771.44
2023-05-24T18:34:57.144Z,100777.75
2023-05-24T18:38:59.525Z,100785.56
2023-05-24T18:43:02.476Z,100787.66
2023-05-24T18:47:05.678Z,100793.97
2023-05-24T18:51:08.044Z,100804.56
2023-05-24T18:55:10.831Z,100797.03
2023-05-24T18:59:14.301Z,100787.28
2023-05-24T19:03:16.979Z,100777.44
2023-05-24T19:07:20.103Z,100777.81
2023-05-24T19:11:23.056Z,100763.09
2023-05-24T19:15:25.847Z,100784.59
2023-05-24T19:19:32.104Z,100764.50
2023-05-24T19:23:34.221Z,100766.97
2023-05-24T19:27:39.819Z,100770.28
2023-05-24T19:31:49.060Z,100768.72
2023-05-24T19:35:51.597Z,100760.47
2023-05-24T19:39:53.979Z,100766.91
2023-05-24T19:44:00.040Z,100762.75
2023-05-24T19:48:04.988Z,100777.91
2023-05-24T19:52:07.180Z,100790.34
2023-05-24T19:56:10.036Z,100792.28
2023-05-24T20:00:13.910Z,100797.28
2023-05-24T20:04:17.068Z,100801.91
2023-05-24T20:08:21.660Z,100804.09
2023-05-24T20:12:24.262Z,100802.41
2023-05-24T20:16:27.074Z,100810.88
2023-05-24T20:20:29.806Z,100803.78
2023-05-24T20:24:32.792Z,100797.16
2023-05-24T20:28:35.391Z,100795.00
2023-05-24T20:32:37.736Z,100798.00
2023-05-24T20:36:43.333Z,100794.13
2023-05-24T20:40:46.411Z,100802.00
2023-05-24T20:44:49.111Z,100798.41
2023-05-24T20:48:51.621Z,100804.31
2023-05-24T20:52:53.839Z,100801.44
2023-05-24T20:56:56.177Z,100807.47
2023-05-24T21:00:59.195Z,100801.81
2023-05-24T21:05:01.829Z,100803.59
2023-05-24T21:09:03.950Z,100793.47
2023-05-24T21:13:07.020Z,100809.75
2023-05-24T21:17:09.299Z,100809.75
2023-05-24T21:21:11.456Z,100801.47
2023-05-24T21:25:13.555Z,100800.97
2023-05-24T21:29:15.863Z,100802.06
2023-05-24T21:33:17.992Z,100806.50
2023-05-24T21:37:20.269Z,100810.25
2023-05-24T21:41:23.927Z,100811.72
2023-05-24T21:45:26.097Z,100811.31
2023-05-24T21:49:28.373Z,100808.19
2023-05-24T21:53:30.552Z,100815.91
2023-05-24T21:57:32.790Z,100811.69
2023-05-24T22:01:35.032Z,100818.44
2023-05-24T22:05:37.350Z,100815.56
2023-05-24T22:09:39.563Z,100820.97
2023-05-24T22:13:42.157Z,100826.16
2023-05-24T22:17:44.356Z,100833.00
2023-05-24T22:21:50.197Z,100827.81
2023-05-24T22:25:52.559Z,100836.47
2023-05-24T22:29:55.777Z,100836.72
2023-05-24T22:34:01.259Z,100834.97
2023-05-24T22:38:03.612Z,100826.41
2023-05-24T22:42:05.798Z,100824.81
2023-05-24T22:46:09.948Z,100823.22
2023-05-24T22:50:14.031Z,100816.09
2023-05-24T22:54:19.601Z,100824.94
2023-05-24T22:58:23.175Z,100821.81
2023-05-24T23:02:27.033Z,100817.66
2023-05-24T23:06:31.633Z,100817.16
2023-05-24T23:10:33.820Z,100821.34
2023-05-24T23:14:41.500Z,100822.03
2023-05-24T23:18:44.533Z,100823.31
2023-05-24T23:22:46.937Z,100834.84
2023-05-24T23:26:49.291Z,100835.06
2023-05-24T23:30:51.628Z,100842.19
2023-05-24T23:34:53.852Z,100861.63
2023-05-24T23:38:56.110Z,100870.91
2023-05-24T23:42:58.316Z,100856.13
2023-05-24T23:47:01.982Z,100861.28
2023-05-24T23:51:04.609Z,100862.34
2023-05-24T23:55:07.621Z,100870.56
2023-05-24T23:59:10.441Z,100869.31
